Time;durP1;ratioP1;P1;durP2;ratioP2;P2;SDS_P1;SDS_P2;PMS_P1;PMS_P2;Temp;Humidity;BMP_temperature;BMP_pressure;BME280_temperature;BME280_humidity;BME280_pressure;Samples;Min_cycle;Max_cycle;Signal;HPM_P1;HPM_P2
2021/08/17 00:01:49;;;;;;;10.05;2.75;;;;;;;13.57;72.08;101966.91;4982162;28;20069;-72
2021/08/17 00:04:17;;;;;;;8.60;2.70;;;;;;;13.48;72.86;101974.28;4986186;28;20161;-72
2021/08/17 00:06:45;;;;;;;9.82;2.67;;;;;;;13.47;72.86;101965.38;4982854;28;20058;-72
2021/08/17 00:09:14;;;;;;;10.13;2.78;;;;;;;13.46;73.13;101963.59;4985895;28;20287;-72
2021/08/17 00:11:41;;;;;;;10.38;2.80;;;;;;;13.41;73.28;101962.84;4981644;28;20081;-71
2021/08/17 00:14:09;;;;;;;18.15;3.03;;;;;;;13.37;73.24;101967.41;4982680;28;20078;-72
2021/08/17 00:16:37;;;;;;;8.80;2.83;;;;;;;13.50;72.38;101959.03;4984757;28;20066;-71
2021/08/17 00:19:06;;;;;;;12.20;3.50;;;;;;;13.42;72.64;101965.50;4983133;28;20106;-72
2021/08/17 00:21:34;;;;;;;8.63;2.95;;;;;;;13.36;72.97;101957.59;4982193;28;20090;-71
2021/08/17 00:24:02;;;;;;;7.57;2.50;;;;;;;13.33;73.49;101964.84;4981331;28;20089;-71
2021/08/17 00:26:30;;;;;;;8.13;2.58;;;;;;;13.29;74.17;101961.34;4982085;28;20104;-72
2021/08/17 00:28:57;;;;;;;13.75;3.08;;;;;;;13.29;74.19;101958.66;4982947;28;20153;-71
2021/08/17 00:31:25;;;;;;;10.55;2.92;;;;;;;13.34;74.59;101958.56;4979903;28;20065;-71
2021/08/17 00:33:53;;;;;;;7.90;3.03;;;;;;;13.35;74.36;101957.63;4981739;28;20069;-71
2021/08/17 00:36:24;;;;;;;7.57;2.97;;;;;;;13.29;75.21;101950.59;4983954;28;20058;-72
2021/08/17 00:38:51;;;;;;;6.72;2.90;;;;;;;13.30;75.83;101954.16;4980068;28;20063;-72
2021/08/17 00:41:19;;;;;;;18.35;4.15;;;;;;;13.32;75.72;101957.75;4981768;28;20113;-71
2021/08/17 00:43:47;;;;;;;8.10;2.72;;;;;;;13.30;76.35;101948.81;4981951;28;20181;-71
2021/08/17 00:46:15;;;;;;;9.77;3.35;;;;;;;13.33;76.18;101949.66;4984057;28;20124;-72
2021/08/17 00:48:43;;;;;;;6.80;3.28;;;;;;;13.35;76.34;101950.50;4981373;28;20066;-72
2021/08/17 00:51:10;;;;;;;8.45;2.83;;;;;;;13.37;76.78;101943.28;4982667;28;20088;-72
2021/08/17 00:53:40;;;;;;;11.52;3.25;;;;;;;13.34;76.96;101939.81;4982918;28;20066;-71
2021/08/17 00:56:07;;;;;;;9.90;3.17;;;;;;;13.39;77.36;101941.44;4984454;28;20164;-75
2021/08/17 00:58:35;;;;;;;11.10;3.15;;;;;;;13.36;77.73;101938.84;4982738;28;20149;-76
2021/08/17 01:01:03;;;;;;;10.57;3.28;;;;;;;13.33;78.05;101941.63;4982335;28;20531;-76
2021/08/17 01:03:31;;;;;;;10.25;3.03;;;;;;;13.35;78.81;101939.78;4980743;28;20069;-75
2021/08/17 01:05:59;;;;;;;7.93;3.13;;;;;;;13.41;79.25;101941.41;4982657;28;20066;-76
2021/08/17 01:08:29;;;;;;;10.38;3.03;;;;;;;13.52;79.27;101947.38;4981862;28;20069;-76
2021/08/17 01:10:58;;;;;;;8.60;3.50;;;;;;;13.56;79.70;101946.34;4983642;28;20086;-76
2021/08/17 01:13:27;;;;;;;8.45;3.35;;;;;;;13.55;79.59;101941.03;4981813;28;20089;-76
2021/08/17 01:15:55;;;;;;;10.02;3.63;;;;;;;13.56;80.08;101945.47;4980500;28;20070;-76
2021/08/17 01:18:23;;;;;;;7.60;3.25;;;;;;;13.61;79.99;101948.91;4982207;28;20090;-77
2021/08/17 01:20:54;;;;;;;7.88;3.22;;;;;;;13.65;80.55;101945.22;4982142;28;20450;-76
2021/08/17 01:23:26;;;;;;;9.30;3.47;;;;;;;13.63;80.36;101942.56;4981753;28;20172;-76
2021/08/17 01:25:56;;;;;;;10.90;3.70;;;;;;;13.64;81.01;101954.22;4979212;28;20449;-76
2021/08/17 01:28:23;;;;;;;10.52;3.20;;;;;;;13.72;80.43;101954.84;4980355;28;20108;-76
2021/08/17 01:30:59;;;;;;;10.27;3.70;;;;;;;13.73;80.09;101953.94;4980327;28;20046;-75
2021/08/17 01:33:27;;;;;;;9.07;2.90;;;;;;;13.76;79.98;101953.00;4981492;28;20461;-76
2021/08/17 01:35:55;;;;;;;10.30;3.22;;;;;;;13.74;80.37;101954.81;4983453;28;20358;-77
2021/08/17 01:38:23;;;;;;;8.88;3.35;;;;;;;13.72;80.06;101960.22;4979924;28;20077;-76
2021/08/17 01:40:51;;;;;;;7.45;3.30;;;;;;;13.76;80.05;101961.03;4981857;28;20461;-76
2021/08/17 01:43:20;;;;;;;11.77;2.88;;;;;;;13.80;80.44;101965.38;4982545;28;20098;-76
2021/08/17 01:45:54;;;;;;;8.52;3.08;;;;;;;13.79;80.28;101958.25;4982876;28;20064;-76
2021/08/17 01:48:25;;;;;;;11.95;3.47;;;;;;;13.83;80.62;101955.44;4981901;28;20062;-76
2021/08/17 01:50:53;;;;;;;8.52;3.10;;;;;;;13.92;80.43;101962.34;4979923;28;20331;-77
2021/08/17 01:53:22;;;;;;;11.00;4.15;;;;;;;13.89;80.72;101957.06;4980994;28;20399;-76
2021/08/17 01:55:51;;;;;;;10.13;3.45;;;;;;;13.86;81.07;101961.63;4981015;28;20220;-77
2021/08/17 01:58:21;;;;;;;10.98;4.22;;;;;;;13.88;81.01;101952.66;4982300;28;20069;-76
2021/08/17 02:00:49;;;;;;;11.20;3.30;;;;;;;13.88;81.16;101958.00;4982240;28;20066;-77
2021/08/17 02:03:17;;;;;;;9.48;3.67;;;;;;;13.88;80.94;101943.72;4981518;28;20062;-77
2021/08/17 02:05:45;;;;;;;24.08;3.83;;;;;;;13.87;81.04;101945.50;4982248;28;20085;-76
2021/08/17 02:08:13;;;;;;;10.07;3.80;;;;;;;13.88;80.83;101952.66;4980269;28;20084;-76
2021/08/17 02:10:41;;;;;;;9.77;3.67;;;;;;;13.87;80.91;101942.81;4981197;28;20470;-77
2021/08/17 02:13:09;;;;;;;12.50;3.72;;;;;;;13.88;81.17;101952.66;4978950;28;20062;-77
2021/08/17 02:15:38;;;;;;;9.82;3.58;;;;;;;13.90;80.74;101953.47;4980957;28;20067;-77
2021/08/17 02:18:06;;;;;;;9.68;3.15;;;;;;;13.89;80.62;101949.00;4979570;28;20062;-76
2021/08/17 02:20:33;;;;;;;11.10;4.80;;;;;;;13.87;80.45;101950.00;4980801;28;20065;-76
2021/08/17 02:23:01;;;;;;;9.25;3.58;;;;;;;13.85;80.73;101954.53;4978812;28;20093;-77
2021/08/17 02:25:29;;;;;;;14.23;4.22;;;;;;;13.86;80.77;101954.50;4980517;28;20062;-77
2021/08/17 02:27:57;;;;;;;8.45;3.58;;;;;;;13.85;80.52;101949.16;4980321;28;20504;-77
2021/08/17 02:30:24;;;;;;;9.25;3.42;;;;;;;13.82;80.76;101940.28;4980739;28;20050;-78
2021/08/17 02:32:54;;;;;;;12.20;3.80;;;;;;;13.78;81.29;101943.97;4978419;28;20053;-77
2021/08/17 02:35:22;;;;;;;10.95;3.70;;;;;;;13.73;81.19;101951.25;4980247;28;20108;-77
2021/08/17 02:37:49;;;;;;;10.80;4.28;;;;;;;13.69;81.22;101948.69;4980924;28;21056;-76
2021/08/17 02:40:18;;;;;;;14.25;4.10;;;;;;;13.66;81.85;101947.00;4978875;28;20050;-76
2021/08/17 02:42:45;;;;;;;13.65;4.30;;;;;;;13.70;82.72;101956.69;4979931;28;20113;-76
2021/08/17 02:45:13;;;;;;;14.95;4.72;;;;;;;13.73;82.77;101943.22;4980947;28;20054;-77
2021/08/17 02:47:41;;;;;;;9.07;4.50;;;;;;;13.76;82.97;101936.91;4979433;28;20077;-77
2021/08/17 02:50:11;;;;;;;9.10;4.40;;;;;;;13.78;83.09;101935.03;4980556;28;20113;-76
2021/08/17 02:52:39;;;;;;;16.67;5.60;;;;;;;13.81;83.25;101941.19;4980615;28;20067;-76
2021/08/17 02:55:08;;;;;;;12.18;4.97;;;;;;;13.83;83.71;101939.34;4981396;28;20065;-77
2021/08/17 02:57:35;;;;;;;12.90;4.68;;;;;;;13.86;83.98;101937.50;4977893;28;20062;-77
2021/08/17 03:00:04;;;;;;;13.00;5.30;;;;;;;13.85;84.36;101939.31;4980490;28;20133;-76
2021/08/17 03:02:32;;;;;;;17.92;5.80;;;;;;;13.84;84.64;101932.16;4977035;28;20082;-77
2021/08/17 03:05:00;;;;;;;12.85;5.45;;;;;;;13.82;85.03;101934.94;4981038;28;20409;-71
2021/08/17 03:07:29;;;;;;;16.08;5.10;;;;;;;13.83;85.92;101933.97;4980270;28;20185;-72
2021/08/17 03:09:57;;;;;;;13.65;5.18;;;;;;;13.85;85.79;101938.44;4978129;28;20089;-73
2021/08/17 03:12:25;;;;;;;14.82;5.40;;;;;;;13.81;85.83;101933.16;4977877;28;20062;-73
2021/08/17 03:14:52;;;;;;;13.65;5.45;;;;;;;13.77;86.01;101931.50;4980381;28;20943;-77
2021/08/17 03:17:20;;;;;;;13.93;5.43;;;;;;;13.74;86.57;101931.56;4979180;28;20070;-77
2021/08/17 03:19:48;;;;;;;17.85;5.30;;;;;;;13.69;87.00;101933.50;4979601;28;20233;-77
2021/08/17 03:22:15;;;;;;;12.50;4.47;;;;;;;13.63;87.80;101934.53;4977487;28;20050;-77
2021/08/17 03:24:46;;;;;;;18.38;5.70;;;;;;;13.56;88.01;101926.72;4978423;28;20374;-77
2021/08/17 03:27:14;;;;;;;15.30;5.35;;;;;;;13.51;88.22;101921.47;4978358;28;20066;-77
2021/08/17 03:29:41;;;;;;;14.10;5.13;;;;;;;13.47;89.08;101922.47;4979567;28;20180;-77
2021/08/17 03:32:09;;;;;;;12.23;5.63;;;;;;;13.39;89.47;101916.44;4979724;28;20077;-76
2021/08/17 03:34:37;;;;;;;15.20;5.72;;;;;;;13.30;89.73;101909.50;4978184;28;20194;-77
2021/08/17 03:37:04;;;;;;;13.55;4.95;;;;;;;13.23;89.61;101911.47;4979598;28;20101;-76
2021/08/17 03:39:32;;;;;;;13.52;5.30;;;;;;;13.18;89.36;101896.44;4981434;28;20066;-77
2021/08/17 03:42:01;;;;;;;12.35;5.85;;;;;;;13.13;90.34;101907.25;4978186;28;20078;-77
2021/08/17 03:44:29;;;;;;;18.55;6.25;;;;;;;13.07;90.36;101905.59;4981552;28;20058;-77
2021/08/17 03:46:57;;;;;;;15.25;5.60;;;;;;;13.01;90.50;101905.78;4978188;28;20094;-75
2021/08/17 03:49:25;;;;;;;16.27;6.10;;;;;;;12.99;91.71;101901.34;4978834;28;20105;-76
2021/08/17 03:51:52;;;;;;;16.92;6.45;;;;;;;12.94;91.49;101905.94;4978372;28;23246;-78
2021/08/17 03:54:20;;;;;;;15.32;6.13;;;;;;;12.90;92.04;101907.81;4977128;28;20094;-77
2021/08/17 03:56:48;;;;;;;15.70;6.50;;;;;;;12.85;92.86;101913.28;4980941;28;20123;-77
2021/08/17 03:59:17;;;;;;;18.73;7.05;;;;;;;12.84;92.56;101913.34;4979468;28;20622;-78
2021/08/17 04:01:46;;;;;;;17.92;6.95;;;;;;;12.81;92.52;101913.41;4979504;28;20062;-77
2021/08/17 04:04:14;;;;;;;19.15;7.97;;;;;;;12.76;92.98;101916.19;4978128;28;20523;-78
2021/08/17 04:06:42;;;;;;;19.55;8.13;;;;;;;12.76;93.57;101921.56;4980225;28;20427;-77
2021/08/17 04:09:10;;;;;;;18.20;7.10;;;;;;;12.74;93.51;101919.84;4980518;28;20062;-77
2021/08/17 04:11:38;;;;;;;20.85;7.47;;;;;;;12.68;93.27;101921.75;4978048;28;20047;-76
2021/08/17 04:14:05;;;;;;;17.38;7.00;;;;;;;12.67;93.58;101929.81;4976366;28;20112;-77
2021/08/17 04:16:35;;;;;;;18.75;6.63;;;;;;;12.68;94.06;101935.16;4981435;28;20062;-77
2021/08/17 04:19:03;;;;;;;19.45;6.85;;;;;;;12.68;93.96;101940.50;4978607;28;20102;-76
2021/08/17 04:21:31;;;;;;;20.92;7.90;;;;;;;12.69;94.39;101941.38;4977722;28;20392;-77
2021/08/17 04:24:00;;;;;;;18.30;7.43;;;;;;;12.72;94.98;101941.31;4976353;28;20111;-76
2021/08/17 04:26:28;;;;;;;21.73;8.35;;;;;;;12.75;94.96;101934.97;4979423;28;20328;-76
2021/08/17 04:28:55;;;;;;;21.55;8.75;;;;;;;12.76;95.30;101929.59;4978389;28;20070;-77
2021/08/17 04:31:23;;;;;;;22.85;7.40;;;;;;;12.79;95.70;101926.84;4977298;28;20117;-76
2021/08/17 04:33:52;;;;;;;22.92;9.05;;;;;;;12.80;95.75;101930.41;4979384;28;20108;-77
2021/08/17 04:36:20;;;;;;;18.75;7.88;;;;;;;12.85;95.69;101932.03;4978766;28;20066;-76
2021/08/17 04:38:48;;;;;;;24.83;8.77;;;;;;;12.89;95.48;101933.75;4977512;28;20133;-77
2021/08/17 04:41:15;;;;;;;20.95;8.20;;;;;;;12.93;95.39;101926.50;4977049;28;20422;-77
2021/08/17 04:43:43;;;;;;;24.73;7.82;;;;;;;12.98;95.58;101926.41;4978339;28;20070;-76
2021/08/17 04:46:11;;;;;;;27.38;9.55;;;;;;;13.04;95.46;101920.88;4980010;28;20484;-76
2021/08/17 04:48:38;;;;;;;27.35;9.13;;;;;;;13.10;95.65;101925.22;4980886;28;20070;-77
2021/08/17 04:51:09;;;;;;;24.42;9.95;;;;;;;13.16;95.97;101922.34;4980855;28;20095;-77
2021/08/17 04:53:37;;;;;;;24.95;9.88;;;;;;;13.21;95.32;101923.13;4982980;28;20137;-77
2021/08/17 04:56:12;;;;;;;23.15;10.05;;;;;;;13.24;95.19;101913.19;4981837;28;20065;-78
2021/08/17 04:58:40;;;;;;;26.13;10.00;;;;;;;13.37;95.32;101923.66;4982315;28;20137;-77
2021/08/17 05:01:08;;;;;;;24.58;9.30;;;;;;;13.39;95.36;101916.44;4979523;28;20066;-76
2021/08/17 05:03:36;;;;;;;26.02;10.70;;;;;;;13.42;95.21;101913.69;4981350;28;20128;-76
2021/08/17 05:06:04;;;;;;;24.08;9.25;;;;;;;13.44;95.01;101909.16;4980509;28;20117;-76
2021/08/17 05:08:33;;;;;;;26.55;10.35;;;;;;;13.45;94.41;101908.25;4980175;28;20066;-75
2021/08/17 05:11:00;;;;;;;24.83;8.35;;;;;;;13.46;94.59;101912.66;4983122;28;20092;-76
2021/08/17 05:13:28;;;;;;;24.55;9.38;;;;;;;13.43;94.58;101913.66;4981274;28;20054;-76
2021/08/17 05:15:56;;;;;;;27.13;8.95;;;;;;;13.45;95.09;101927.00;4980241;28;20073;-76
2021/08/17 05:18:24;;;;;;;25.00;9.27;;;;;;;13.44;94.56;101925.25;4981138;28;20225;-76
2021/08/17 05:20:52;;;;;;;22.23;9.10;;;;;;;13.48;95.05;101926.03;4980458;28;20062;-76
2021/08/17 05:23:19;;;;;;;23.00;9.05;;;;;;;13.52;95.10;101920.56;4982336;28;20062;-76
2021/08/17 05:25:49;;;;;;;29.00;10.10;;;;;;;13.55;94.96;101920.47;4980226;28;20054;-76
2021/08/17 05:28:16;;;;;;;29.40;9.52;;;;;;;13.60;95.24;101918.56;4981396;28;20112;-76
2021/08/17 05:30:44;;;;;;;27.45;9.88;;;;;;;13.70;95.29;101915.59;4984543;28;20125;-75
2021/08/17 05:33:12;;;;;;;28.38;9.95;;;;;;;13.77;95.35;101918.09;4980826;28;20066;-76
2021/08/17 05:35:40;;;;;;;24.65;9.40;;;;;;;13.82;95.35;101909.88;4982445;28;20081;-76
2021/08/17 05:38:08;;;;;;;28.55;10.88;;;;;;;13.88;95.26;101898.97;4980658;28;20462;-76
2021/08/17 05:40:36;;;;;;;26.83;9.85;;;;;;;13.92;95.38;101902.44;4981325;28;20102;-75
2021/08/17 05:43:10;;;;;;;24.58;8.65;;;;;;;13.94;95.45;101908.66;4982983;28;20125;-75
2021/08/17 05:46:02;;;;;;;22.10;8.98;;;;;;;14.01;95.31;101902.16;4979555;28;20149;-75
2021/08/17 05:48:31;;;;;;;31.40;10.43;;;;;;;14.09;95.17;101902.81;4981814;28;20132;-75
2021/08/17 05:51:00;;;;;;;21.85;9.77;;;;;;;14.15;95.04;101897.28;4977805;28;20055;-75
2021/08/17 05:53:28;;;;;;;26.67;9.23;;;;;;;14.23;94.68;101898.84;4980027;28;20054;-75
2021/08/17 05:55:55;;;;;;;21.88;8.45;;;;;;;14.33;94.28;101894.97;4981124;28;20066;-74
2021/08/17 05:58:24;;;;;;;25.27;9.93;;;;;;;14.42;93.86;101893.78;4977639;28;20473;-76
2021/08/17 06:00:52;;;;;;;25.83;8.82;;;;;;;14.47;93.61;101897.22;4980706;28;20172;-75
2021/08/17 06:03:20;;;;;;;21.52;8.43;;;;;;;14.51;93.60;101899.75;4972977;28;20125;-75
2021/08/17 06:05:48;;;;;;;25.02;9.55;;;;;;;14.52;94.21;101904.22;4978222;28;20063;-75
2021/08/17 06:08:16;;;;;;;25.75;10.48;;;;;;;14.53;94.33;101910.44;4979706;28;20113;-70
2021/08/17 06:10:43;;;;;;;25.63;9.43;;;;;;;14.56;94.13;101911.22;4978039;28;20377;-72
2021/08/17 06:13:11;;;;;;;28.55;9.80;;;;;;;14.65;94.03;101907.41;4978358;28;20065;-72
2021/08/17 06:15:40;;;;;;;24.70;10.23;;;;;;;14.70;94.31;101905.44;4980047;28;20525;-71
2021/08/17 06:18:08;;;;;;;25.98;9.02;;;;;;;14.79;93.82;101901.56;4979685;28;20051;-72
2021/08/17 06:20:36;;;;;;;25.85;9.25;;;;;;;14.82;93.78;101908.66;4978603;28;20521;-71
2021/08/17 06:23:04;;;;;;;22.45;8.43;;;;;;;14.90;93.81;101904.78;4979134;28;20379;-73
2021/08/17 06:25:33;;;;;;;28.63;9.73;;;;;;;14.98;92.90;101907.22;4981111;28;20073;-70
2021/08/17 06:28:01;;;;;;;25.65;9.43;;;;;;;15.03;92.82;101912.44;4976856;28;20062;-72
2021/08/17 06:30:29;;;;;;;21.92;8.70;;;;;;;15.09;91.97;101918.50;4976718;28;20062;-72
2021/08/17 06:32:58;;;;;;;24.52;8.38;;;;;;;15.23;91.50;101917.16;4978651;28;20362;-71
2021/08/17 06:35:27;;;;;;;21.40;8.05;;;;;;;15.49;90.60;101927.88;4976726;28;20066;-72
2021/08/17 06:37:55;;;;;;;23.10;9.25;;;;;;;15.59;89.65;101930.22;4975269;28;20129;-72
2021/08/17 06:40:24;;;;;;;19.60;7.43;;;;;;;16.39;87.01;101919.19;4974040;28;20093;-72
2021/08/17 06:42:52;;;;;;;20.58;8.10;;;;;;;16.58;85.82;101924.72;4977670;28;20102;-71
2021/08/17 06:45:20;;;;;;;21.90;7.43;;;;;;;16.38;86.09;101930.91;4976978;28;20070;-72
2021/08/17 06:47:50;;;;;;;19.23;7.00;;;;;;;16.25;85.61;101922.41;4978206;28;20074;-72
2021/08/17 06:50:39;;;;;;;25.70;8.38;;;;;;;16.24;86.32;101915.25;4977524;28;20080;-74
2021/08/17 06:53:07;;;;;;;19.77;8.05;;;;;;;16.21;85.94;101908.19;4978105;28;20165;-76
2021/08/17 06:55:34;;;;;;;18.73;7.53;;;;;;;16.15;85.64;101910.25;4976566;28;20164;-76
2021/08/17 06:58:02;;;;;;;20.08;7.13;;;;;;;16.12;85.34;101922.00;4975640;28;20070;-75
2021/08/17 07:00:30;;;;;;;21.92;8.57;;;;;;;16.08;86.02;101932.97;4975296;28;20070;-76
2021/08/17 07:02:58;;;;;;;18.88;8.38;;;;;;;15.95;85.85;101924.47;4978010;28;20088;-76
2021/08/17 07:05:34;;;;;;;17.83;7.43;;;;;;;15.91;85.45;101914.75;4976839;28;20168;-75
2021/08/17 07:08:04;;;;;;;17.10;7.35;;;;;;;15.89;85.20;101904.03;4974027;28;20067;-77
2021/08/17 07:10:32;;;;;;;17.92;7.30;;;;;;;15.87;83.68;101903.22;4978177;28;20066;-76
2021/08/17 07:13:19;;;;;;;17.73;7.10;;;;;;;15.85;82.62;101897.91;4978997;28;20384;-76
2021/08/17 07:15:47;;;;;;;17.17;6.82;;;;;;;15.92;82.70;101884.19;4975989;28;20129;-72
2021/08/17 07:18:15;;;;;;;14.18;6.35;;;;;;;16.02;82.20;101888.28;4976591;28;20399;-72
2021/08/17 07:20:44;;;;;;;21.42;8.77;;;;;;;16.03;81.28;101887.38;4979757;28;20129;-73
2021/08/17 07:23:13;;;;;;;14.25;6.10;;;;;;;16.12;81.03;101892.38;4978051;28;20145;-72
2021/08/17 07:25:42;;;;;;;16.95;6.68;;;;;;;16.09;80.26;101894.31;4974702;28;20073;-73
2021/08/17 07:28:11;;;;;;;14.40;6.55;;;;;;;16.20;80.47;101882.19;4974502;28;20066;-73
2021/08/17 07:30:39;;;;;;;16.23;5.95;;;;;;;16.18;79.61;101885.91;4975049;28;20065;-72
2021/08/17 07:33:07;;;;;;;16.58;6.50;;;;;;;16.25;79.69;101892.81;4975474;28;20073;-72
2021/08/17 07:35:35;;;;;;;14.43;6.32;;;;;;;16.36;79.37;101889.69;4977476;28;20077;-72
2021/08/17 07:38:03;;;;;;;16.83;6.95;;;;;;;16.39;79.00;101882.34;4976892;28;20390;-71
2021/08/17 07:40:32;;;;;;;17.92;6.22;;;;;;;16.50;78.49;101894.50;4973759;28;20073;-71
2021/08/17 07:43:01;;;;;;;16.25;6.03;;;;;;;16.61;77.90;101894.97;4974224;28;20069;-71
2021/08/17 07:45:28;;;;;;;14.25;5.90;;;;;;;16.73;77.86;101885.50;4975873;28;20124;-73
2021/08/17 07:48:16;;;;;;;16.27;6.35;;;;;;;16.80;77.53;101895.97;4977077;28;20050;-71
2021/08/17 07:50:44;;;;;;;17.25;6.60;;;;;;;16.91;76.79;101892.00;4975464;28;20070;-72
2021/08/17 07:53:12;;;;;;;17.65;6.85;;;;;;;17.04;76.32;101895.03;4974586;28;20179;-73
2021/08/17 07:55:41;;;;;;;14.02;6.05;;;;;;;17.11;75.16;101891.13;4976168;28;20100;-72
2021/08/17 07:58:09;;;;;;;14.73;5.60;;;;;;;17.13;74.23;101894.66;4974513;28;20093;-72
2021/08/17 08:00:37;;;;;;;13.70;5.63;;;;;;;17.08;73.47;101902.94;4975435;28;20194;-72
2021/08/17 08:03:05;;;;;;;14.32;5.75;;;;;;;17.02;73.65;101894.22;4975926;28;20327;-71
2021/08/17 08:05:34;;;;;;;13.07;6.07;;;;;;;16.91;74.68;101902.78;4974076;28;20129;-72
2021/08/17 08:08:02;;;;;;;14.68;5.57;;;;;;;16.89;74.63;101900.13;4976235;28;20055;-70
2021/08/17 08:10:30;;;;;;;13.07;5.65;;;;;;;16.60;74.33;101894.09;4975981;28;20069;-70
2021/08/17 08:12:59;;;;;;;15.40;5.65;;;;;;;16.44;74.59;101901.03;4973448;28;20047;-74
2021/08/17 08:15:27;;;;;;;13.13;5.45;;;;;;;16.36;75.07;101895.97;4977206;28;20059;-74
2021/08/17 08:17:55;;;;;;;17.38;6.10;;;;;;;16.41;75.17;101898.44;4976665;28;20069;-74
2021/08/17 08:20:23;;;;;;;13.05;5.25;;;;;;;16.47;75.23;101891.97;4979656;28;20062;-69
2021/08/17 08:22:51;;;;;;;10.88;4.88;;;;;;;16.41;74.97;101899.34;4984339;28;20069;-70
2021/08/17 08:25:19;;;;;;;10.77;4.63;;;;;;;16.31;74.39;101899.75;4984393;28;20088;-74
2021/08/17 08:27:47;;;;;;;13.07;5.00;;;;;;;16.33;74.12;101906.84;4983627;28;20117;-74
2021/08/17 08:30:17;;;;;;;13.70;5.07;;;;;;;16.38;74.56;101907.53;4981842;28;20066;-74
2021/08/17 08:32:45;;;;;;;11.52;4.88;;;;;;;16.47;75.10;101917.06;4983594;28;20140;-70
2021/08/17 08:35:13;;;;;;;11.10;5.10;;;;;;;16.45;75.25;101924.34;4980798;28;20085;-70
2021/08/17 08:37:41;;;;;;;16.23;6.68;;;;;;;16.46;74.55;101934.16;4980045;28;20529;-70
2021/08/17 08:40:11;;;;;;;12.93;4.53;;;;;;;16.56;74.46;101926.59;4982909;28;20062;-70
2021/08/17 08:42:40;;;;;;;14.40;4.60;;;;;;;16.61;74.51;101936.25;4982313;28;20066;-70
2021/08/17 08:45:09;;;;;;;12.25;5.10;;;;;;;16.69;74.41;101919.78;4983802;28;20093;-70
2021/08/17 08:47:40;;;;;;;10.70;5.22;;;;;;;16.70;74.01;101928.72;4982898;28;20662;-71
2021/08/17 08:50:09;;;;;;;12.75;4.53;;;;;;;16.61;74.00;101929.97;4982490;28;20405;-70
2021/08/17 08:52:37;;;;;;;10.43;4.28;;;;;;;16.53;74.23;101937.50;4983777;28;20092;-74
2021/08/17 08:55:07;;;;;;;13.48;4.93;;;;;;;16.52;74.46;101935.75;4980458;28;20424;-74
2021/08/17 08:57:34;;;;;;;12.32;4.40;;;;;;;16.39;74.16;101936.22;4982481;28;20062;-70
2021/08/17 09:00:03;;;;;;;11.32;4.60;;;;;;;16.36;74.15;101944.44;4983335;28;20432;-71
2021/08/17 09:02:32;;;;;;;11.48;4.50;;;;;;;16.16;73.93;101937.13;4981500;28;20062;-70
2021/08/17 09:05:02;;;;;;;9.07;4.53;;;;;;;16.17;74.95;101921.84;4984602;28;20066;-70
2021/08/17 09:07:38;;;;;;;10.32;4.20;;;;;;;16.10;74.72;101920.31;4982170;28;20079;-70
2021/08/17 09:10:11;;;;;;;10.18;4.85;;;;;;;16.13;75.65;101920.22;4982147;28;20265;-70
2021/08/17 09:12:41;;;;;;;10.82;4.18;;;;;;;16.12;76.02;101916.63;4980179;28;20121;-70
2021/08/17 09:15:12;;;;;;;11.93;4.47;;;;;;;16.16;75.87;101912.03;4979961;28;20073;-70
2021/08/17 09:17:41;;;;;;;11.93;4.65;;;;;;;16.21;76.12;101912.72;4984193;28;20129;-70
2021/08/17 09:20:16;;;;;;;11.80;4.90;;;;;;;16.06;76.16;101895.34;4981357;28;20046;-70
2021/08/17 09:22:43;;;;;;;12.35;4.28;;;;;;;16.20;75.79;101908.25;4983955;28;20069;-70
2021/08/17 09:25:11;;;;;;;10.70;4.80;;;;;;;16.12;75.41;101899.59;4980895;28;20096;-70
2021/08/17 09:27:39;;;;;;;11.32;4.43;;;;;;;16.21;75.67;101905.50;4981438;28;20062;-70
2021/08/17 09:30:10;;;;;;;11.55;4.95;;;;;;;16.29;75.85;101907.88;4984210;28;20066;-70
2021/08/17 09:32:53;;;;;;;9.88;4.40;;;;;;;16.28;76.19;101905.25;4980122;28;20181;-70
2021/08/17 09:35:25;;;;;;;11.85;4.93;;;;;;;16.11;76.25;101914.00;4979902;28;20058;-70
2021/08/17 09:38:15;;;;;;;11.05;4.95;;;;;;;16.18;76.01;101904.75;4981530;28;20078;-75
2021/08/17 09:40:43;;;;;;;13.60;4.93;;;;;;;16.18;76.10;101911.00;4980626;28;20069;-73
2021/08/17 09:43:13;;;;;;;11.82;4.65;;;;;;;16.11;76.49;101905.94;4982559;28;20681;-74
2021/08/17 09:45:42;;;;;;;9.65;4.60;;;;;;;15.88;77.88;101918.44;4982844;28;20097;-74
2021/08/17 09:48:12;;;;;;;10.57;4.32;;;;;;;15.50;83.23;101926.06;4977307;28;20157;-75
2021/08/17 09:50:43;;;;;;;10.50;4.20;;;;;;;15.13;84.72;101917.44;4978324;28;20100;-74
2021/08/17 09:53:13;;;;;;;8.38;4.03;;;;;;;15.21;86.74;101932.47;4979429;28;20066;-74
2021/08/17 09:55:46;;;;;;;11.50;4.25;;;;;;;15.04;88.41;101927.66;4983978;28;20062;-75
2021/08/17 09:58:23;;;;;;;10.83;4.33;;;;;;;15.13;88.91;101928.19;4978782;28;20070;-75
2021/08/17 10:00:53;;;;;;;9.63;4.40;;;;;;;14.92;91.15;101927.13;4983001;28;20491;-74
2021/08/17 10:03:24;;;;;;;10.43;4.35;;;;;;;14.88;91.55;101905.75;4976371;28;20403;-73
2021/08/17 10:05:53;;;;;;;9.50;4.10;;;;;;;14.82;92.85;101909.53;4977704;28;20058;-73
2021/08/17 10:08:23;;;;;;;8.13;4.13;;;;;;;14.88;91.54;101905.75;4976287;28;20450;-74
2021/08/17 10:10:52;;;;;;;11.38;4.72;;;;;;;14.78;92.97;101901.63;4978492;28;20066;-75
2021/08/17 10:13:22;;;;;;;10.10;3.95;;;;;;;14.81;93.25;101898.84;4983328;28;20058;-70
2021/08/17 10:15:51;;;;;;;9.88;4.70;;;;;;;14.74;93.93;101901.75;4976419;28;20147;-72
2021/08/17 10:18:23;;;;;;;12.38;5.05;;;;;;;14.61;94.96;101895.00;4978929;28;20042;-76
2021/08/17 10:20:54;;;;;;;10.40;5.20;;;;;;;14.48;95.70;101898.97;4981083;28;20366;-76
2021/08/17 10:23:23;;;;;;;8.93;4.40;;;;;;;14.53;96.21;101902.41;4979550;28;20065;-75
2021/08/17 10:25:53;;;;;;;10.35;4.65;;;;;;;14.60;96.26;101897.75;4982838;28;20532;-75
2021/08/17 10:28:31;;;;;;;9.23;4.47;;;;;;;14.59;95.96;101893.28;4979262;28;20047;-75
2021/08/17 10:31:21;;;;;;;14.18;5.10;;;;;;;14.53;96.62;101905.06;4980002;28;20069;-75
2021/08/17 10:33:51;;;;;;;14.50;4.80;;;;;;;14.47;97.41;101900.78;4977239;28;20157;-76
2021/08/17 10:36:32;;;;;;;14.07;5.07;;;;;;;14.47;97.14;101900.78;4981465;28;20054;-76
2021/08/17 10:39:02;;;;;;;10.88;4.90;;;;;;;14.31;98.55;101895.00;4982206;28;20390;-76
2021/08/17 10:41:33;;;;;;;15.43;4.90;;;;;;;14.32;99.97;101903.94;4980192;28;20485;-75
2021/08/17 10:44:11;;;;;;;16.13;5.53;;;;;;;14.36;99.43;101902.91;4979445;28;20069;-74
2021/08/17 10:47:00;;;;;;;16.85;5.70;;;;;;;14.34;100.00;101907.47;4979025;28;20063;-71
2021/08/17 10:49:52;;;;;;;13.35;5.10;;;;;;;14.41;100.00;101898.28;4979493;28;20067;-73
2021/08/17 10:52:41;;;;;;;12.23;5.38;;;;;;;14.35;100.00;101895.78;4978763;28;20066;-73
2021/08/17 10:55:24;;;;;;;13.90;5.40;;;;;;;14.48;100.00;101902.53;4981734;28;20078;-72
2021/08/17 10:57:54;;;;;;;14.02;5.55;;;;;;;14.49;100.00;101887.28;4981418;28;20112;-72
2021/08/17 11:00:48;;;;;;;11.60;5.38;;;;;;;14.58;100.00;101892.38;4977242;28;20094;-72
2021/08/17 11:03:35;;;;;;;;;;;;;;;14.72;100.00;101894.66;4982346;28;20062;-72
2021/08/17 11:06:05;;;;;;;9.25;5.40;;;;;;;14.65;100.00;101882.34;4977305;28;19925;-69
2021/08/17 11:08:39;;;;;;;14.55;5.93;;;;;;;14.66;100.00;101882.31;4976217;28;20330;-69
2021/08/17 11:11:19;;;;;;;13.20;4.90;;;;;;;14.64;100.00;101876.13;4978356;28;20077;-69
2021/08/17 11:14:11;;;;;;;12.38;5.35;;;;;;;14.61;100.00;101878.91;4976133;28;20321;-70
2021/08/17 11:16:44;;;;;;;12.57;6.03;;;;;;;14.56;100.00;101878.13;4977084;28;20065;-70
2021/08/17 11:19:13;;;;;;;11.82;5.25;;;;;;;14.53;100.00;101873.72;4977296;28;20314;-70
2021/08/17 11:21:43;;;;;;;13.75;6.03;;;;;;;14.68;100.00;101868.84;4979217;28;20513;-70
2021/08/17 11:24:19;;;;;;;11.52;5.32;;;;;;;14.49;100.00;101864.03;4977653;28;20365;-70
2021/08/17 11:26:56;;;;;;;17.38;5.97;;;;;;;14.51;100.00;101867.53;4976783;28;20072;-70
2021/08/17 11:29:33;;;;;;;13.40;6.10;;;;;;;14.48;100.00;101870.31;4978043;28;20458;-71